N702CF KVGT-KSMO
Flight info
| Callsign | N702CF |
|---|---|
| Flight time | 1h 14m |
| Altitude | 17000 |
| Route | NOTWN5 LAS V538 GFS WNCHL BOGET2 |
| Aircraft | TBM8/L-G/S |
Departure
| Time | 2026-04-28 18:31 |
|---|---|
| Airport | North Las Vegas Airport (KVGT) |
Arrival
| Time | 2026-04-28 19:45 |
|---|---|
| Airport | Santa Monica Municipal Airport (KSMO) |
| Time | Latitude | Longitude | Altitude | Speed | Heading |
|---|---|---|---|---|---|
| 2026-04-28 18:17 | 36.21011 | -115.19914 | 2190 ft | 0 kts | 315° |
| 2026-04-28 18:26 | 36.21018 | -115.19923 | 2193 ft | 5 kts | 313° |
| 2026-04-28 18:26 | 36.21050 | -115.19941 | 2193 ft | 4 kts | 8° |
| 2026-04-28 18:27 | 36.21074 | -115.19931 | 2190 ft | 3 kts | 19° |
| 2026-04-28 18:27 | 36.21101 | -115.19926 | 2189 ft | 4 kts | 342° |
| 2026-04-28 18:27 | 36.21125 | -115.19949 | 2190 ft | 5 kts | 313° |
| 2026-04-28 18:27 | 36.21150 | -115.19982 | 2189 ft | 6 kts | 313° |
| 2026-04-28 18:28 | 36.21177 | -115.20016 | 2192 ft | 5 kts | 315° |
| 2026-04-28 18:28 | 36.21198 | -115.20044 | 2191 ft | 4 kts | 313° |
| 2026-04-28 18:28 | 36.21218 | -115.20071 | 2191 ft | 5 kts | 311° |
| 2026-04-28 18:28 | 36.21248 | -115.20110 | 2192 ft | 5 kts | 321° |
| 2026-04-28 18:29 | 36.21266 | -115.20125 | 2194 ft | 0 kts | 2° |
| 2026-04-28 18:29 | 36.21271 | -115.20120 | 2194 ft | 2 kts | 64° |
| 2026-04-28 18:29 | 36.21270 | -115.20105 | 2193 ft | 2 kts | 102° |
| 2026-04-28 18:29 | 36.21272 | -115.20047 | 2191 ft | 9 kts | 76° |
| 2026-04-28 18:30 | 36.21274 | -115.20015 | 2190 ft | 0 kts | 141° |
| 2026-04-28 18:30 | 36.21194 | -115.19916 | 2187 ft | 43 kts | 134° |
| 2026-04-28 18:30 | 36.20863 | -115.19497 | 2192 ft | 92 kts | 134° |
| 2026-04-28 18:31 | 36.20382 | -115.18882 | 2431 ft | 104 kts | 136° |
| 2026-04-28 18:31 | 36.19708 | -115.18446 | 2750 ft | 117 kts | 184° |
| 2026-04-28 18:31 | 36.19075 | -115.18942 | 3239 ft | 115 kts | 249° |
| 2026-04-28 18:31 | 36.18928 | -115.19899 | 3766 ft | 107 kts | 265° |
| 2026-04-28 18:32 | 36.18826 | -115.20905 | 4050 ft | 122 kts | 265° |
| 2026-04-28 18:32 | 36.18721 | -115.21917 | 4521 ft | 118 kts | 265° |
| 2026-04-28 18:32 | 36.18477 | -115.22930 | 4782 ft | 132 kts | 242° |
| 2026-04-28 18:32 | 36.18192 | -115.24110 | 4898 ft | 158 kts | 269° |
| 2026-04-28 18:33 | 36.18608 | -115.25439 | 4964 ft | 180 kts | 313° |
| 2026-04-28 18:33 | 36.19738 | -115.26215 | 5019 ft | 195 kts | 342° |
| 2026-04-28 18:33 | 36.21076 | -115.26744 | 5048 ft | 207 kts | 341° |
| 2026-04-28 18:33 | 36.22427 | -115.27454 | 5046 ft | 215 kts | 335° |
| 2026-04-28 18:34 | 36.23764 | -115.28323 | 5015 ft | 219 kts | 331° |
| 2026-04-28 18:34 | 36.25167 | -115.28994 | 4982 ft | 217 kts | 356° |
| 2026-04-28 18:34 | 36.26570 | -115.28463 | 4984 ft | 215 kts | 39° |
| 2026-04-28 18:34 | 36.27281 | -115.26893 | 4979 ft | 213 kts | 84° |
| 2026-04-28 18:35 | 36.26884 | -115.25210 | 5234 ft | 209 kts | 128° |
| 2026-04-28 18:35 | 36.25636 | -115.24273 | 5487 ft | 218 kts | 166° |
| 2026-04-28 18:35 | 36.24114 | -115.24046 | 5748 ft | 222 kts | 173° |
| 2026-04-28 18:35 | 36.22589 | -115.23726 | 6065 ft | 222 kts | 166° |
| 2026-04-28 18:36 | 36.21121 | -115.23188 | 6457 ft | 219 kts | 160° |
| 2026-04-28 18:36 | 36.19721 | -115.22534 | 6931 ft | 212 kts | 157° |
| 2026-04-28 18:36 | 36.18382 | -115.21835 | 7414 ft | 206 kts | 156° |
| 2026-04-28 18:36 | 36.17085 | -115.21120 | 7909 ft | 202 kts | 155° |
| 2026-04-28 18:37 | 36.15818 | -115.20403 | 8414 ft | 198 kts | 155° |
| 2026-04-28 18:37 | 36.14574 | -115.19696 | 8921 ft | 195 kts | 156° |
| 2026-04-28 18:37 | 36.13361 | -115.18997 | 9504 ft | 188 kts | 155° |
| 2026-04-28 18:37 | 36.12208 | -115.18329 | 10141 ft | 178 kts | 155° |
| 2026-04-28 18:38 | 36.11119 | -115.17691 | 10738 ft | 168 kts | 156° |
| 2026-04-28 18:38 | 36.10098 | -115.17087 | 11353 ft | 157 kts | 157° |
| 2026-04-28 18:38 | 36.09156 | -115.16529 | 11976 ft | 143 kts | 157° |
| 2026-04-28 18:38 | 36.08590 | -115.16185 | 12366 ft | 130 kts | 157° |
| 2026-04-28 18:39 | 36.07840 | -115.15847 | 12947 ft | 97 kts | 181° |
| 2026-04-28 18:39 | 36.07194 | -115.15823 | 13180 ft | 91 kts | 181° |
| 2026-04-28 18:39 | 36.06578 | -115.15726 | 13342 ft | 88 kts | 180° |
| 2026-04-28 18:39 | 36.05933 | -115.15704 | 13317 ft | 105 kts | 192° |
| 2026-04-28 18:40 | 36.04918 | -115.15984 | 13596 ft | 112 kts | 197° |
| 2026-04-28 18:40 | 36.04406 | -115.16077 | 13858 ft | 111 kts | 190° |
| 2026-04-28 18:40 | 36.03608 | -115.16115 | 14078 ft | 117 kts | 186° |
| 2026-04-28 18:40 | 36.02785 | -115.16105 | 14310 ft | 119 kts | 185° |
| 2026-04-28 18:41 | 36.01954 | -115.16083 | 14593 ft | 120 kts | 186° |
| 2026-04-28 18:41 | 36.01122 | -115.16068 | 14852 ft | 120 kts | 186° |
| 2026-04-28 18:41 | 36.00290 | -115.16063 | 15126 ft | 120 kts | 187° |
| 2026-04-28 18:41 | 35.99454 | -115.16062 | 15401 ft | 120 kts | 187° |
| 2026-04-28 18:42 | 35.98619 | -115.16072 | 15659 ft | 120 kts | 188° |
| 2026-04-28 18:42 | 35.97784 | -115.16083 | 15924 ft | 120 kts | 188° |
| 2026-04-28 18:42 | 35.96949 | -115.16099 | 16189 ft | 120 kts | 188° |
| 2026-04-28 18:42 | 35.96111 | -115.16115 | 16446 ft | 120 kts | 189° |
| 2026-04-28 18:43 | 35.95274 | -115.16133 | 16706 ft | 120 kts | 189° |
| 2026-04-28 18:43 | 35.94435 | -115.16148 | 16974 ft | 121 kts | 189° |
| 2026-04-28 18:43 | 35.93525 | -115.16182 | 17018 ft | 141 kts | 190° |
| 2026-04-28 18:43 | 35.92473 | -115.16254 | 17047 ft | 163 kts | 189° |
| 2026-04-28 18:44 | 35.91266 | -115.16318 | 17062 ft | 185 kts | 188° |
| 2026-04-28 18:44 | 35.88440 | -115.16372 | 17060 ft | 219 kts | 186° |
| 2026-04-28 18:44 | 35.86878 | -115.16382 | 17061 ft | 230 kts | 186° |
| 2026-04-28 18:45 | 35.85274 | -115.16393 | 17051 ft | 238 kts | 186° |
| 2026-04-28 18:45 | 35.83598 | -115.16408 | 17042 ft | 243 kts | 186° |
| 2026-04-28 18:45 | 35.81889 | -115.16427 | 17039 ft | 248 kts | 186° |
| 2026-04-28 18:45 | 35.80154 | -115.16452 | 17037 ft | 251 kts | 186° |
| 2026-04-28 18:46 | 35.78400 | -115.16479 | 17032 ft | 253 kts | 186° |
| 2026-04-28 18:46 | 35.76630 | -115.16511 | 17026 ft | 255 kts | 186° |
| 2026-04-28 18:46 | 35.74853 | -115.16541 | 16988 ft | 256 kts | 186° |
| 2026-04-28 18:46 | 35.73077 | -115.16569 | 16995 ft | 255 kts | 186° |
| 2026-04-28 18:47 | 35.71301 | -115.16599 | 17003 ft | 255 kts | 186° |
| 2026-04-28 18:47 | 35.69523 | -115.16628 | 16988 ft | 255 kts | 186° |
| 2026-04-28 18:47 | 35.67748 | -115.16653 | 17010 ft | 256 kts | 186° |
| 2026-04-28 18:47 | 35.65968 | -115.16680 | 17003 ft | 256 kts | 186° |
| 2026-04-28 18:48 | 35.64185 | -115.16706 | 17000 ft | 256 kts | 186° |
| 2026-04-28 18:48 | 35.62404 | -115.16736 | 16992 ft | 256 kts | 186° |
| 2026-04-28 18:48 | 35.60621 | -115.16766 | 16981 ft | 256 kts | 186° |
| 2026-04-28 18:48 | 35.58840 | -115.16795 | 17002 ft | 256 kts | 186° |
| 2026-04-28 18:49 | 35.57057 | -115.16827 | 16986 ft | 256 kts | 186° |
| 2026-04-28 18:49 | 35.55877 | -115.16848 | 16988 ft | 256 kts | 186° |
| 2026-04-28 18:49 | 35.53494 | -115.16890 | 16990 ft | 256 kts | 186° |
| 2026-04-28 18:49 | 35.51710 | -115.16922 | 17011 ft | 257 kts | 186° |
| 2026-04-28 18:50 | 35.49920 | -115.16955 | 17016 ft | 258 kts | 186° |
| 2026-04-28 18:50 | 35.48126 | -115.16987 | 17018 ft | 258 kts | 186° |
| 2026-04-28 18:50 | 35.46329 | -115.17019 | 17013 ft | 258 kts | 186° |
| 2026-04-28 18:50 | 35.44530 | -115.17051 | 17012 ft | 259 kts | 186° |
| 2026-04-28 18:51 | 35.42730 | -115.17083 | 17011 ft | 259 kts | 186° |
| 2026-04-28 18:51 | 35.40926 | -115.17114 | 17008 ft | 259 kts | 186° |
| 2026-04-28 18:51 | 35.39122 | -115.17145 | 17003 ft | 259 kts | 186° |
| 2026-04-28 18:51 | 35.37318 | -115.17177 | 17011 ft | 260 kts | 186° |
| 2026-04-28 18:52 | 35.35512 | -115.17210 | 17001 ft | 260 kts | 186° |
| 2026-04-28 18:52 | 35.33706 | -115.17240 | 16990 ft | 260 kts | 186° |
| 2026-04-28 18:52 | 35.31900 | -115.17270 | 16992 ft | 259 kts | 186° |
| 2026-04-28 18:52 | 35.30096 | -115.17302 | 16987 ft | 259 kts | 186° |
| 2026-04-28 18:53 | 35.28294 | -115.17333 | 16985 ft | 259 kts | 187° |
| 2026-04-28 18:53 | 35.26516 | -115.17365 | 16983 ft | 259 kts | 186° |
| 2026-04-28 18:53 | 35.24717 | -115.17395 | 16984 ft | 259 kts | 186° |
| 2026-04-28 18:53 | 35.22918 | -115.17426 | 16978 ft | 258 kts | 186° |
| 2026-04-28 18:54 | 35.21120 | -115.17456 | 16977 ft | 258 kts | 186° |
| 2026-04-28 18:54 | 35.19324 | -115.17487 | 16978 ft | 258 kts | 187° |
| 2026-04-28 18:54 | 35.17528 | -115.17518 | 16962 ft | 258 kts | 186° |
| 2026-04-28 18:54 | 35.15765 | -115.17738 | 16966 ft | 251 kts | 200° |
| 2026-04-28 18:55 | 35.14244 | -115.18687 | 16966 ft | 243 kts | 221° |
| 2026-04-28 18:55 | 35.13460 | -115.19649 | 16967 ft | 241 kts | 233° |
| 2026-04-28 18:55 | 35.12577 | -115.22113 | 16972 ft | 240 kts | 260° |
| 2026-04-28 18:55 | 35.12423 | -115.24145 | 16977 ft | 240 kts | 262° |
| 2026-04-28 18:56 | 35.12184 | -115.26162 | 16981 ft | 240 kts | 259° |
| 2026-04-28 18:56 | 35.11906 | -115.28170 | 16985 ft | 240 kts | 259° |
| 2026-04-28 18:56 | 35.11631 | -115.30178 | 16984 ft | 240 kts | 259° |
| 2026-04-28 18:56 | 35.11365 | -115.32190 | 16971 ft | 240 kts | 259° |
| 2026-04-28 18:57 | 35.11108 | -115.34203 | 16974 ft | 240 kts | 259° |
| 2026-04-28 18:57 | 35.10857 | -115.36214 | 16953 ft | 239 kts | 259° |
| 2026-04-28 18:57 | 35.10610 | -115.38220 | 16988 ft | 239 kts | 260° |
| 2026-04-28 18:57 | 35.10366 | -115.40230 | 16988 ft | 240 kts | 260° |
| 2026-04-28 18:58 | 35.10122 | -115.42242 | 16986 ft | 240 kts | 260° |
| 2026-04-28 18:58 | 35.09877 | -115.44256 | 16985 ft | 240 kts | 260° |
| 2026-04-28 18:58 | 35.09633 | -115.46271 | 16995 ft | 240 kts | 260° |
| 2026-04-28 18:58 | 35.09388 | -115.48287 | 16996 ft | 240 kts | 260° |
| 2026-04-28 18:59 | 35.09142 | -115.50307 | 17004 ft | 241 kts | 260° |
| 2026-04-28 18:59 | 35.08895 | -115.52330 | 17011 ft | 241 kts | 260° |
| 2026-04-28 18:59 | 35.08649 | -115.54355 | 17005 ft | 241 kts | 260° |
| 2026-04-28 18:59 | 35.08403 | -115.56380 | 17008 ft | 241 kts | 260° |
| 2026-04-28 19:00 | 35.08155 | -115.58407 | 17010 ft | 241 kts | 260° |
| 2026-04-28 19:00 | 35.07907 | -115.60435 | 17004 ft | 242 kts | 260° |
| 2026-04-28 19:00 | 35.07658 | -115.62462 | 17000 ft | 241 kts | 260° |
| 2026-04-28 19:00 | 35.07409 | -115.64496 | 17095 ft | 244 kts | 260° |
| 2026-04-28 19:01 | 35.07156 | -115.66548 | 17034 ft | 244 kts | 260° |
| 2026-04-28 19:01 | 35.06904 | -115.68597 | 17003 ft | 243 kts | 260° |
| 2026-04-28 19:01 | 35.06653 | -115.70633 | 16978 ft | 242 kts | 260° |
| 2026-04-28 19:01 | 35.06406 | -115.72659 | 16967 ft | 240 kts | 260° |
| 2026-04-28 19:02 | 35.06160 | -115.74645 | 16978 ft | 240 kts | 260° |
| 2026-04-28 19:02 | 35.05911 | -115.76653 | 16986 ft | 239 kts | 260° |
| 2026-04-28 19:02 | 35.05661 | -115.78658 | 16987 ft | 239 kts | 260° |
| 2026-04-28 19:02 | 35.05410 | -115.80663 | 16988 ft | 239 kts | 259° |
| 2026-04-28 19:03 | 35.05162 | -115.82669 | 16983 ft | 239 kts | 260° |
| 2026-04-28 19:03 | 35.04914 | -115.84676 | 16995 ft | 239 kts | 259° |
| 2026-04-28 19:03 | 35.04662 | -115.86685 | 16988 ft | 239 kts | 259° |
| 2026-04-28 19:03 | 35.04411 | -115.88693 | 16986 ft | 239 kts | 259° |
| 2026-04-28 19:04 | 35.04159 | -115.90700 | 16984 ft | 239 kts | 259° |
| 2026-04-28 19:04 | 35.03908 | -115.92707 | 16980 ft | 239 kts | 260° |
| 2026-04-28 19:04 | 35.03658 | -115.94713 | 16964 ft | 239 kts | 260° |
| 2026-04-28 19:04 | 35.03408 | -115.96715 | 16967 ft | 239 kts | 259° |
| 2026-04-28 19:05 | 35.03156 | -115.98714 | 16963 ft | 238 kts | 259° |
| 2026-04-28 19:05 | 35.02904 | -116.00714 | 16965 ft | 238 kts | 260° |
| 2026-04-28 19:05 | 35.02655 | -116.02710 | 16965 ft | 238 kts | 259° |
| 2026-04-28 19:05 | 35.02402 | -116.04706 | 16962 ft | 238 kts | 259° |
| 2026-04-28 19:06 | 35.02149 | -116.06702 | 16964 ft | 238 kts | 259° |
| 2026-04-28 19:06 | 35.01978 | -116.08051 | 16965 ft | 238 kts | 259° |
| 2026-04-28 19:06 | 35.01642 | -116.10693 | 16957 ft | 238 kts | 259° |
| 2026-04-28 19:06 | 35.01390 | -116.12687 | 16951 ft | 237 kts | 260° |
| 2026-04-28 19:07 | 35.01138 | -116.14675 | 16945 ft | 237 kts | 259° |
| 2026-04-28 19:07 | 35.00884 | -116.16660 | 16959 ft | 237 kts | 259° |
| 2026-04-28 19:07 | 35.00593 | -116.18637 | 16958 ft | 237 kts | 257° |
| 2026-04-28 19:07 | 35.00221 | -116.20592 | 16957 ft | 237 kts | 255° |
| 2026-04-28 19:08 | 34.99822 | -116.22541 | 16952 ft | 237 kts | 255° |
| 2026-04-28 19:08 | 34.99425 | -116.24488 | 16953 ft | 237 kts | 255° |
| 2026-04-28 19:08 | 34.99027 | -116.26433 | 16948 ft | 236 kts | 255° |
| 2026-04-28 19:08 | 34.98629 | -116.28374 | 16943 ft | 235 kts | 255° |
| 2026-04-28 19:09 | 34.98231 | -116.30309 | 16945 ft | 235 kts | 255° |
| 2026-04-28 19:09 | 34.97831 | -116.32245 | 16945 ft | 236 kts | 255° |
| 2026-04-28 19:09 | 34.97432 | -116.34183 | 16942 ft | 236 kts | 255° |
| 2026-04-28 19:09 | 34.97037 | -116.36121 | 16939 ft | 235 kts | 255° |
| 2026-04-28 19:10 | 34.96643 | -116.38057 | 16945 ft | 235 kts | 255° |
| 2026-04-28 19:10 | 34.96246 | -116.39995 | 16955 ft | 236 kts | 255° |
| 2026-04-28 19:10 | 34.95850 | -116.41934 | 16965 ft | 236 kts | 255° |
| 2026-04-28 19:10 | 34.95452 | -116.43876 | 16957 ft | 236 kts | 255° |
| 2026-04-28 19:11 | 34.95053 | -116.45821 | 16959 ft | 236 kts | 255° |
| 2026-04-28 19:11 | 34.94654 | -116.47766 | 16961 ft | 237 kts | 255° |
| 2026-04-28 19:11 | 34.94255 | -116.49712 | 16960 ft | 237 kts | 255° |
| 2026-04-28 19:11 | 34.93855 | -116.51657 | 16957 ft | 237 kts | 255° |
| 2026-04-28 19:12 | 34.93456 | -116.53600 | 16961 ft | 236 kts | 255° |
| 2026-04-28 19:12 | 34.93055 | -116.55545 | 16967 ft | 237 kts | 255° |
| 2026-04-28 19:12 | 34.92659 | -116.57463 | 16969 ft | 237 kts | 255° |
| 2026-04-28 19:12 | 34.92258 | -116.59405 | 16969 ft | 237 kts | 255° |
| 2026-04-28 19:13 | 34.91856 | -116.61350 | 16966 ft | 237 kts | 255° |
| 2026-04-28 19:13 | 34.91454 | -116.63293 | 16968 ft | 236 kts | 255° |
| 2026-04-28 19:13 | 34.91053 | -116.65234 | 16968 ft | 236 kts | 255° |
| 2026-04-28 19:13 | 34.90650 | -116.67175 | 16974 ft | 236 kts | 255° |
| 2026-04-28 19:14 | 34.90247 | -116.69116 | 16972 ft | 236 kts | 255° |
| 2026-04-28 19:14 | 34.89845 | -116.71057 | 16974 ft | 236 kts | 255° |
| 2026-04-28 19:14 | 34.89442 | -116.72995 | 16956 ft | 236 kts | 255° |
| 2026-04-28 19:14 | 34.89040 | -116.74930 | 16959 ft | 235 kts | 255° |
| 2026-04-28 19:15 | 34.88638 | -116.76862 | 16967 ft | 235 kts | 255° |
| 2026-04-28 19:15 | 34.88236 | -116.78794 | 16971 ft | 236 kts | 255° |
| 2026-04-28 19:15 | 34.87832 | -116.80729 | 16972 ft | 236 kts | 255° |
| 2026-04-28 19:15 | 34.87560 | -116.82036 | 16966 ft | 236 kts | 255° |
| 2026-04-28 19:16 | 34.87025 | -116.84596 | 16969 ft | 236 kts | 255° |
| 2026-04-28 19:16 | 34.86621 | -116.86532 | 16973 ft | 236 kts | 255° |
| 2026-04-28 19:16 | 34.86217 | -116.88464 | 16972 ft | 236 kts | 255° |
| 2026-04-28 19:16 | 34.85812 | -116.90398 | 16968 ft | 236 kts | 255° |
| 2026-04-28 19:17 | 34.85406 | -116.92332 | 16964 ft | 236 kts | 255° |
| 2026-04-28 19:17 | 34.85001 | -116.94264 | 16968 ft | 236 kts | 255° |
| 2026-04-28 19:17 | 34.84596 | -116.96195 | 16965 ft | 236 kts | 255° |
| 2026-04-28 19:17 | 34.84191 | -116.98127 | 16958 ft | 236 kts | 255° |
| 2026-04-28 19:18 | 34.83785 | -117.00059 | 16954 ft | 235 kts | 255° |
| 2026-04-28 19:18 | 34.83379 | -117.01990 | 16950 ft | 235 kts | 255° |
| 2026-04-28 19:18 | 34.82972 | -117.03920 | 16961 ft | 236 kts | 255° |
| 2026-04-28 19:18 | 34.82565 | -117.05851 | 16960 ft | 236 kts | 255° |
| 2026-04-28 19:19 | 34.82157 | -117.07784 | 16953 ft | 236 kts | 255° |
| 2026-04-28 19:19 | 34.81749 | -117.09718 | 16953 ft | 236 kts | 255° |
| 2026-04-28 19:19 | 34.81341 | -117.11651 | 16952 ft | 236 kts | 255° |
| 2026-04-28 19:19 | 34.80932 | -117.13584 | 16948 ft | 236 kts | 255° |
| 2026-04-28 19:20 | 34.80523 | -117.15517 | 16961 ft | 236 kts | 255° |
| 2026-04-28 19:20 | 34.80113 | -117.17452 | 16969 ft | 236 kts | 255° |
| 2026-04-28 19:20 | 34.79703 | -117.19388 | 16977 ft | 236 kts | 255° |
| 2026-04-28 19:20 | 34.79293 | -117.21323 | 16975 ft | 237 kts | 255° |
| 2026-04-28 19:21 | 34.78881 | -117.23261 | 16979 ft | 237 kts | 255° |
| 2026-04-28 19:21 | 34.78468 | -117.25199 | 16979 ft | 237 kts | 255° |
| 2026-04-28 19:21 | 34.78056 | -117.27136 | 16979 ft | 237 kts | 255° |
| 2026-04-28 19:21 | 34.77644 | -117.29073 | 16981 ft | 236 kts | 255° |
| 2026-04-28 19:22 | 34.77232 | -117.31008 | 16985 ft | 236 kts | 255° |
| 2026-04-28 19:22 | 34.77092 | -117.31662 | 16985 ft | 236 kts | 255° |
| 2026-04-28 19:22 | 34.76400 | -117.34877 | 16987 ft | 236 kts | 255° |
| 2026-04-28 19:22 | 34.75982 | -117.36809 | 16989 ft | 236 kts | 255° |
| 2026-04-28 19:23 | 34.75566 | -117.38742 | 16988 ft | 236 kts | 255° |
| 2026-04-28 19:23 | 34.75151 | -117.40675 | 16993 ft | 236 kts | 255° |
| 2026-04-28 19:23 | 34.74736 | -117.42607 | 16997 ft | 236 kts | 255° |
| 2026-04-28 19:23 | 34.74321 | -117.44540 | 16992 ft | 236 kts | 255° |
| 2026-04-28 19:24 | 34.73906 | -117.46477 | 16990 ft | 236 kts | 255° |
| 2026-04-28 19:24 | 34.73492 | -117.48410 | 16988 ft | 237 kts | 255° |
| 2026-04-28 19:24 | 34.73083 | -117.50348 | 16985 ft | 236 kts | 255° |
| 2026-04-28 19:24 | 34.72674 | -117.52282 | 16981 ft | 236 kts | 255° |
| 2026-04-28 19:25 | 34.72262 | -117.54216 | 16980 ft | 236 kts | 255° |
| 2026-04-28 19:25 | 34.71854 | -117.56122 | 16981 ft | 236 kts | 255° |
| 2026-04-28 19:25 | 34.71440 | -117.58052 | 16975 ft | 236 kts | 255° |
| 2026-04-28 19:25 | 34.71025 | -117.59984 | 16981 ft | 236 kts | 255° |
| 2026-04-28 19:26 | 34.70607 | -117.61919 | 16982 ft | 237 kts | 255° |
| 2026-04-28 19:26 | 34.70185 | -117.63878 | 16815 ft | 243 kts | 255° |
| 2026-04-28 19:26 | 34.69754 | -117.65879 | 16631 ft | 247 kts | 255° |
| 2026-04-28 19:26 | 34.69318 | -117.67912 | 16450 ft | 250 kts | 255° |
| 2026-04-28 19:27 | 34.68876 | -117.69965 | 16261 ft | 252 kts | 255° |
| 2026-04-28 19:27 | 34.68431 | -117.72029 | 16091 ft | 253 kts | 255° |
| 2026-04-28 19:27 | 34.67983 | -117.74101 | 15926 ft | 254 kts | 255° |
| 2026-04-28 19:27 | 34.67686 | -117.75475 | 15807 ft | 254 kts | 255° |
| 2026-04-28 19:28 | 34.67082 | -117.78263 | 15507 ft | 257 kts | 255° |
| 2026-04-28 19:28 | 34.66779 | -117.79655 | 15328 ft | 259 kts | 255° |
| 2026-04-28 19:28 | 34.66314 | -117.81795 | 14910 ft | 265 kts | 255° |
| 2026-04-28 19:28 | 34.65840 | -117.83979 | 14476 ft | 269 kts | 255° |
| 2026-04-28 19:29 | 34.65329 | -117.86181 | 14098 ft | 271 kts | 252° |
| 2026-04-28 19:29 | 34.64882 | -117.87606 | 14077 ft | 264 kts | 248° |
| 2026-04-28 19:29 | 34.63930 | -117.90250 | 14055 ft | 253 kts | 248° |
| 2026-04-28 19:29 | 34.63240 | -117.92191 | 14050 ft | 248 kts | 248° |
| 2026-04-28 19:30 | 34.62550 | -117.94129 | 13804 ft | 253 kts | 248° |
| 2026-04-28 19:30 | 34.61841 | -117.96111 | 13436 ft | 259 kts | 248° |
| 2026-04-28 19:30 | 34.61120 | -117.98127 | 13075 ft | 262 kts | 247° |
| 2026-04-28 19:30 | 34.60392 | -118.00164 | 12717 ft | 264 kts | 247° |
| 2026-04-28 19:31 | 34.59661 | -118.02211 | 12368 ft | 265 kts | 247° |
| 2026-04-28 19:31 | 34.58927 | -118.04258 | 12101 ft | 262 kts | 247° |
| 2026-04-28 19:31 | 34.58213 | -118.06254 | 12055 ft | 254 kts | 247° |
| 2026-04-28 19:31 | 34.57500 | -118.08244 | 11551 ft | 262 kts | 246° |
| 2026-04-28 19:32 | 34.56770 | -118.10288 | 11116 ft | 265 kts | 246° |
| 2026-04-28 19:32 | 34.56041 | -118.12339 | 10688 ft | 265 kts | 246° |
| 2026-04-28 19:32 | 34.55304 | -118.14391 | 10271 ft | 265 kts | 245° |
| 2026-04-28 19:32 | 34.54564 | -118.16439 | 9825 ft | 265 kts | 245° |
| 2026-04-28 19:33 | 34.53825 | -118.18480 | 9345 ft | 264 kts | 245° |
| 2026-04-28 19:33 | 34.53092 | -118.20518 | 8897 ft | 263 kts | 245° |
| 2026-04-28 19:33 | 34.52356 | -118.22545 | 8453 ft | 262 kts | 244° |
| 2026-04-28 19:33 | 34.51349 | -118.24356 | 8087 ft | 257 kts | 223° |
| 2026-04-28 19:34 | 34.49907 | -118.25522 | 8054 ft | 244 kts | 204° |
| 2026-04-28 19:34 | 34.48315 | -118.26123 | 8029 ft | 237 kts | 193° |
| 2026-04-28 19:34 | 34.46726 | -118.26598 | 7969 ft | 234 kts | 194° |
| 2026-04-28 19:34 | 34.45154 | -118.27097 | 7909 ft | 233 kts | 194° |
| 2026-04-28 19:35 | 34.43587 | -118.27586 | 7813 ft | 232 kts | 194° |
| 2026-04-28 19:35 | 34.42024 | -118.28075 | 7751 ft | 232 kts | 194° |
| 2026-04-28 19:35 | 34.40464 | -118.28568 | 7688 ft | 231 kts | 194° |
| 2026-04-28 19:35 | 34.38909 | -118.29065 | 7609 ft | 231 kts | 195° |
| 2026-04-28 19:36 | 34.37351 | -118.29555 | 7581 ft | 231 kts | 194° |
| 2026-04-28 19:36 | 34.35864 | -118.30018 | 7539 ft | 231 kts | 194° |
| 2026-04-28 19:36 | 34.34319 | -118.30504 | 7529 ft | 229 kts | 194° |
| 2026-04-28 19:36 | 34.32774 | -118.30986 | 7543 ft | 229 kts | 193° |
| 2026-04-28 19:37 | 34.31216 | -118.31344 | 7554 ft | 227 kts | 188° |
| 2026-04-28 19:37 | 34.30179 | -118.31489 | 7538 ft | 227 kts | 185° |
| 2026-04-28 19:37 | 34.28070 | -118.31665 | 7559 ft | 227 kts | 181° |
| 2026-04-28 19:37 | 34.26491 | -118.31557 | 7564 ft | 227 kts | 172° |
| 2026-04-28 19:38 | 34.24935 | -118.31217 | 7553 ft | 227 kts | 169° |
| 2026-04-28 19:38 | 34.23386 | -118.30837 | 7555 ft | 227 kts | 169° |
| 2026-04-28 19:38 | 34.21830 | -118.30461 | 7448 ft | 232 kts | 169° |
| 2026-04-28 19:38 | 34.20203 | -118.30046 | 7023 ft | 245 kts | 165° |
| 2026-04-28 19:39 | 34.18659 | -118.29224 | 6585 ft | 251 kts | 149° |
| 2026-04-28 19:39 | 34.17056 | -118.28267 | 6001 ft | 256 kts | 164° |
| 2026-04-28 19:39 | 34.15273 | -118.28348 | 5318 ft | 264 kts | 198° |
| 2026-04-28 19:39 | 34.13790 | -118.29643 | 4650 ft | 268 kts | 231° |
| 2026-04-28 19:40 | 34.12755 | -118.31453 | 4013 ft | 251 kts | 234° |
| 2026-04-28 19:40 | 34.11791 | -118.32886 | 3460 ft | 194 kts | 228° |
| 2026-04-28 19:40 | 34.10970 | -118.33949 | 3124 ft | 156 kts | 226° |
| 2026-04-28 19:40 | 34.10272 | -118.34784 | 2954 ft | 123 kts | 224° |
| 2026-04-28 19:41 | 34.09718 | -118.35426 | 3003 ft | 106 kts | 223° |
| 2026-04-28 19:41 | 34.09191 | -118.36057 | 3011 ft | 105 kts | 227° |
| 2026-04-28 19:41 | 34.08691 | -118.36730 | 2843 ft | 114 kts | 227° |
| 2026-04-28 19:41 | 34.08124 | -118.37440 | 2557 ft | 119 kts | 225° |
| 2026-04-28 19:42 | 34.07532 | -118.38128 | 2223 ft | 117 kts | 224° |
| 2026-04-28 19:42 | 34.06970 | -118.38783 | 1942 ft | 108 kts | 225° |
| 2026-04-28 19:42 | 34.06442 | -118.39389 | 1681 ft | 101 kts | 222° |
| 2026-04-28 19:42 | 34.06106 | -118.39757 | 1557 ft | 96 kts | 223° |
| 2026-04-28 19:43 | 34.05489 | -118.40470 | 1348 ft | 88 kts | 225° |
| 2026-04-28 19:43 | 34.05076 | -118.40976 | 1209 ft | 81 kts | 227° |
| 2026-04-28 19:43 | 34.04675 | -118.41424 | 1093 ft | 74 kts | 219° |
| 2026-04-28 19:43 | 34.04320 | -118.41856 | 1002 ft | 71 kts | 231° |
| 2026-04-28 19:44 | 34.04025 | -118.42295 | 884 ft | 65 kts | 225° |
| 2026-04-28 19:44 | 34.03686 | -118.42668 | 796 ft | 73 kts | 221° |
| 2026-04-28 19:44 | 34.03308 | -118.43108 | 694 ft | 74 kts | 224° |
| 2026-04-28 19:44 | 34.02950 | -118.43535 | 535 ft | 71 kts | 224° |
| 2026-04-28 19:45 | 34.02599 | -118.43936 | 410 ft | 72 kts | 227° |
| 2026-04-28 19:45 | 34.02250 | -118.44354 | 269 ft | 69 kts | 221° |
| 2026-04-28 19:45 | 34.01893 | -118.44764 | 146 ft | 71 kts | 223° |
| 2026-04-28 19:45 | 34.01596 | -118.45120 | 124 ft | 48 kts | 225° |
| 2026-04-28 19:46 | 34.01475 | -118.45260 | 126 ft | 4 kts | 218° |
| 2026-04-28 19:46 | 34.01451 | -118.45266 | 125 ft | 5 kts | 159° |
| 2026-04-28 19:46 | 34.01411 | -118.45228 | 126 ft | 8 kts | 185° |
| 2026-04-28 19:46 | 34.01394 | -118.45245 | 124 ft | 0 kts | 227° |
| 2026-04-28 19:47 | 34.01393 | -118.45246 | 124 ft | 1 kts | 227° |
| 2026-04-28 19:47 | 34.01359 | -118.45286 | 125 ft | 11 kts | 223° |
| 2026-04-28 19:47 | 34.01320 | -118.45332 | 125 ft | 6 kts | 225° |
| 2026-04-28 19:48 | 34.01288 | -118.45370 | 125 ft | 8 kts | 224° |
| 2026-04-28 19:48 | 34.01246 | -118.45434 | 126 ft | 10 kts | 231° |
| 2026-04-28 19:48 | 34.01205 | -118.45457 | 125 ft | 7 kts | 131° |
| 2026-04-28 19:48 | 34.01212 | -118.45422 | 127 ft | 1 kts | 44° |
| 2026-04-28 19:49 | 34.01215 | -118.45420 | 127 ft | 1 kts | 28° |
| 2026-04-28 19:49 | 34.01224 | -118.45422 | 126 ft | 1 kts | 312° |
| 2026-04-28 19:49 | 34.01229 | -118.45428 | 125 ft | 0 kts | 311° |